Latest Weather Observations for Maatsuyker Island

IDT60801

Issued at 2:05 pm EDT Wednesday 26 November 2014 (issued every 30 minutes, with the page automatically refreshed every 10 minutes)

About weather observations | Map of weather stations | Latest weather observations for TAS | Other Formats
Station Details ID: 094041 Name: MAATSUYKER ISLAND LIGHTHOUSE Lat: -43.66 Lon: 146.27 Height: 146.5 m
Data from the previous 72 hours. | See also: Recent months at Maatsuyker Island
Date/Time
EDT
Temp
°C
App
Temp
°C
Dew
Point
Rel
Hum
%
Delta-T
°C
Wind Press
QNH
hPa
Press
MSL
hPa
Rain
since 9 am
mm
Dir
 
Spd
km/h
Gust
km/h
Spd
kts
Gust
kts
26/02:00pm 10.0 2.1 7.7 86 1.1 WNW 39 46 21 25 1017.3 - 0.6
26/01:32pm 9.9 2.4 6.3 78 1.7 W 35 54 19 29 1017.2 - 0.4
26/01:30pm 10.2 2.5 7.1 81 1.5 W 37 54 20 29 1017.2 - 0.4
26/01:23pm 10.8 3.4 6.8 76 1.9 W 35 54 19 29 1017.2 - 0.4
26/01:00pm 9.6 2.5 6.2 79 1.6 W 33 48 18 26 1017.0 - 0.4
26/12:30pm 9.3 1.8 6.5 83 1.3 W 35 56 19 30 1016.8 - 0.4
26/12:26pm 10.8 3.7 6.6 75 2.0 W 33 54 18 29 1016.6 - 0.4
26/12:00pm 10.8 2.5 6.1 73 2.2 W 39 48 21 26 1016.2 1016.4 0.4
26/11:30am 10.5 2.9 6.0 74 2.1 W 35 48 19 26 1015.8 - 0.4
26/11:00am 10.6 2.6 7.3 80 1.6 WNW 39 48 21 26 1015.5 - 0.4
26/10:30am 10.0 1.0 6.6 79 1.6 WNW 43 54 23 29 1015.1 - 0.4
26/10:00am 8.3 -0.4 5.9 85 1.1 W 41 65 22 35 1014.8 - 0.2
26/09:53am 9.4 0.3 6.9 84 1.2 WNW 44 65 24 35 1014.7 - 0.2
26/09:30am 9.3 1.1 6.5 83 1.3 WNW 39 46 21 25 1014.4 - 0.2
26/09:00am 8.8 2.0 6.9 88 0.9 W 32 65 17 35 1014.1 1014.2 3.0
26/08:34am 8.5 -0.5 6.3 86 1.0 W 43 61 23 33 1013.6 - 3.0
26/08:30am 8.5 -1.4 6.6 88 0.9 WNW 48 63 26 34 1013.7 - 3.0
26/08:11am 8.6 -2.5 6.2 85 1.1 W 54 72 29 39 1013.3 - 2.4
26/08:00am 9.2 -5.7 6.4 83 1.3 NW 74 83 40 45 1011.8 - 2.4
26/07:30am 9.3 -5.1 6.8 84 1.2 NW 72 83 39 45 1011.1 - 2.4
26/07:16am 8.3 -6.7 6.1 86 1.0 WNW 74 93 40 50 1011.8 - 2.0
26/07:00am 9.7 -5.7 6.0 78 1.7 NW 76 83 41 45 1010.6 - 1.8
26/06:30am 9.2 -6.9 6.2 81 1.4 NW 80 95 43 51 1010.2 - 1.8
26/06:22am 10.2 -5.5 4.4 67 2.6 NW 76 95 41 51 1009.8 - 1.8
26/06:00am 10.0 -4.8 5.2 72 2.2 NW 72 83 39 45 1010.5 1010.6 1.8
26/05:30am 10.3 -5.3 4.6 68 2.6 NW 76 91 41 49 1009.1 - 1.8
26/05:00am 9.8 -5.7 3.2 63 2.9 NW 74 83 40 45 1009.1 - 1.8
26/04:30am 9.5 -5.3 5.1 74 2.0 NW 72 83 39 45 1008.9 - 1.8
26/04:00am 9.8 -5.3 3.7 66 2.7 WNW 72 83 39 45 1008.9 - 1.8
26/03:30am 10.1 -5.2 4.3 67 2.6 NW 74 85 40 46 1008.5 - 1.8
26/03:00am 10.1 -4.9 4.1 66 2.7 NW 72 80 39 43 1008.5 1008.6 1.8
26/02:30am 9.7 -6.0 4.1 68 2.5 NW 76 85 41 46 1008.5 - 1.8
26/02:00am 9.9 -4.8 5.3 73 2.1 WNW 72 82 39 44 1008.4 - 1.8
26/01:30am 10.0 -6.2 5.7 74 2.0 WNW 80 95 43 51 1008.1 - 1.8
26/01:00am 10.1 -5.9 6.7 79 1.6 NW 80 89 43 48 1007.6 - 1.8
26/12:30am 10.0 -4.2 7.7 86 1.1 WNW 72 80 39 43 1007.8 - 1.8
26/12:14am 10.0 -4.5 7.9 87 1.0 NW 74 89 40 48 1007.5 - 1.8
26/12:00am 10.5 -7.6 9.7 95 0.4 NW 95 117 51 63 1007.1 1007.2 1.8
 
Date/Time
EDT
Temp
°C
App
Temp
°C
Dew
Point
Rel
Hum
%
Delta-T
°C
Wind Press
QNH
hPa
Press
MSL
hPa
Rain
since 9 am
mm
Dir
 
Spd
km/h
Gust
km/h
Spd
kts
Gust
kts
25/11:55pm 10.6 -8.0 9.8 95 0.4 NNW 98 117 53 63 1005.0 - 1.8
25/11:52pm 10.5 -8.9 9.9 96 0.3 NNW 102 117 55 63 1004.5 - 1.8
25/11:30pm 10.5 -4.3 9.9 96 0.3 NNW 78 96 42 52 1005.8 - 0.6
25/11:13pm 10.8 -4.1 9.4 91 0.7 NNW 78 96 42 52 1006.4 - 0.2
25/11:00pm 10.5 -4.1 9.3 92 0.6 NNW 76 87 41 47 1006.4 - 0.2
25/10:33pm 10.8 -3.7 8.2 84 1.3 NNW 74 93 40 50 1006.4 - 0.2
25/10:30pm 11.0 -3.9 8.2 83 1.4 NNW 76 93 41 50 1006.6 - 0.2
25/10:20pm 10.8 -4.4 8.4 85 1.2 NNW 78 96 42 52 1006.6 - 0.2
25/10:00pm 11.0 -3.1 8.2 83 1.4 NNW 72 85 39 46 1007.3 - 0.2
25/09:32pm 10.7 -2.5 8.1 84 1.3 NNW 67 85 36 46 1007.6 - 0.2
25/09:30pm 10.7 -2.4 8.3 85 1.2 NNW 67 80 36 43 1007.7 - 0.2
25/09:00pm 10.1 -5.2 8.1 87 1.0 NW 78 87 42 47 1007.5 1007.6 0.2
25/08:30pm 10.2 -4.6 8.4 89 0.9 NW 76 89 41 48 1007.6 - 0.2
25/08:00pm 10.5 -5.8 7.6 82 1.4 NW 83 95 45 51 1007.7 - 0.2
25/07:30pm 10.5 -4.7 6.9 78 1.7 NW 76 85 41 46 1007.9 - 0.2
25/07:00pm 10.6 -4.5 7.1 79 1.7 NW 76 89 41 48 1007.6 - 0.2
25/06:30pm 10.4 -6.1 5.9 73 2.1 NW 82 93 44 50 1007.9 - 0.2
25/06:08pm 10.0 -4.8 6.6 79 1.6 NW 74 93 40 50 1008.0 - 0.2
25/06:00pm 9.7 -5.7 7.4 85 1.1 NW 78 93 42 50 1007.2 1007.3 0.2
25/05:30pm 11.1 -5.7 5.3 67 2.7 NW 83 91 45 49 1007.5 - 0.2
25/05:00pm 11.0 -5.4 6.4 73 2.2 NW 82 91 44 49 1007.8 - 0.2
25/04:30pm 9.8 -7.3 5.7 75 1.9 NW 85 100 46 54 1007.7 - 0.2
25/04:21pm 10.6 -5.9 6.1 74 2.1 NW 82 100 44 54 1007.6 - 0.2
25/04:00pm 10.7 -5.6 5.0 68 2.6 NW 80 93 43 50 1007.5 - 0.2
25/03:30pm 10.4 -5.1 5.2 70 2.4 NW 76 89 41 48 1006.9 - 0.2
25/03:17pm 9.9 -5.6 5.3 73 2.1 NW 76 95 41 51 1007.4 - 0.2
25/03:00pm 10.7 -3.7 5.3 69 2.5 W 70 93 38 50 1006.9 1007.0 0.2
25/02:30pm 10.7 -4.2 6.5 75 2.0 NW 74 82 40 44 1006.9 - 0.2
25/02:00pm 10.5 -4.8 6.3 75 2.0 NW 76 83 41 45 1007.0 - 0.2
25/01:45pm 10.6 -3.9 6.6 76 1.9 NW 72 91 39 49 1007.1 - 0.2
25/01:30pm 9.3 -5.7 7.4 88 0.9 WNW 76 89 41 48 1007.1 - 0.2
25/01:00pm 11.3 -3.3 6.0 70 2.5 NW 72 82 39 44 1006.5 - 0.2
25/12:30pm 11.4 -4.1 5.4 66 2.8 NW 76 89 41 48 1006.6 - 0.2
25/12:25pm 11.3 -3.1 5.3 66 2.8 NW 70 89 38 48 1006.4 - 0.2
25/12:00pm 10.9 -3.7 5.8 71 2.4 NW 72 83 39 45 1006.8 1006.9 0.2
25/11:30am 10.8 -4.1 6.4 74 2.1 NW 74 83 40 45 1006.3 - 0.2
25/11:00am 10.5 -2.2 7.0 79 1.7 NW 63 72 34 39 1006.4 - 0.0
25/10:30am 10.8 -2.7 6.8 76 1.9 NW 67 74 36 40 1006.3 - 0.0
25/10:00am 10.3 -4.0 5.6 72 2.2 WNW 70 82 38 44 1006.6 - 0.0
25/09:30am 10.9 -3.1 6.3 73 2.2 NW 69 78 37 42 1006.0 - 0.0
25/09:00am 10.4 -1.7 6.1 75 2.0 WNW 59 80 32 43 1005.6 1005.7 3.2
25/08:30am 10.7 -4.9 4.8 67 2.7 NW 76 83 41 45 1004.9 - 3.2
25/08:00am 10.3 -4.1 7.0 80 1.6 NW 72 80 39 43 1004.3 - 3.2
25/07:30am 10.0 -6.6 6.4 78 1.7 NW 83 91 45 49 1003.4 - 3.2
25/07:00am 10.2 -5.8 6.4 77 1.8 WNW 80 89 43 48 1002.8 - 3.2
25/06:30am 9.7 -7.1 7.0 83 1.3 NW 85 98 46 53 1002.5 - 3.2
25/06:00am 9.9 -4.8 7.2 83 1.3 W 74 91 40 49 1001.6 1001.7 3.2
25/05:39am 10.1 -6.3 7.2 82 1.4 NW 83 102 45 55 1001.3 - 3.2
25/05:30am 10.2 -6.5 7.5 83 1.3 NW 85 98 46 53 1000.5 - 3.2
25/05:00am 10.5 -7.3 7.6 82 1.4 NW 91 102 49 55 999.7 - 3.2
25/04:30am 10.5 -7.3 7.8 83 1.3 NW 91 106 49 57 999.5 - 3.2
25/04:01am 10.6 -7.8 6.9 78 1.8 NW 93 111 50 60 998.9 - 3.2
25/04:00am 10.7 -8.2 6.5 75 2.0 NW 95 111 51 60 998.7 - 3.2
25/03:33am 10.5 -7.8 7.4 81 1.5 NW 93 111 50 60 999.2 - 3.2
25/03:30am 10.4 -8.5 7.1 80 1.6 NW 96 111 52 60 998.8 - 3.2
25/03:01am 10.0 -8.5 8.8 92 0.6 NW 96 115 52 62 998.6 - 3.2
25/03:00am 10.0 -8.9 8.8 92 0.6 NW 98 115 53 62 998.3 998.4 3.2
25/02:43am 10.3 -6.2 8.5 89 0.9 NW 85 109 46 59 997.4 - 3.0
25/02:30am 10.3 -7.0 8.3 87 1.0 NW 89 106 48 57 998.0 - 3.0
25/02:02am 10.3 -7.9 7.6 83 1.3 NW 93 111 50 60 998.1 - 3.0
25/02:00am 10.5 -8.0 7.9 84 1.3 NW 95 111 51 60 998.1 - 3.0
25/01:30am 10.3 -7.0 8.1 86 1.1 NW 89 102 48 55 998.0 - 2.8
25/01:04am 10.4 -6.2 8.2 86 1.1 NW 85 104 46 56 997.2 - 2.6
25/01:00am 10.2 -6.0 8.2 87 1.0 NNW 83 98 45 53 998.3 - 2.6
25/12:30am 10.9 -4.9 7.6 80 1.6 NNW 80 98 43 53 997.9 - 2.0
25/12:04am 10.9 -3.5 7.0 77 1.9 NNW 72 95 39 51 998.4 - 2.0
25/12:00am 11.1 -3.3 7.0 76 2.0 NNW 72 89 39 48 998.7 998.8 2.0
 
Date/Time
EDT
Temp
°C
App
Temp
°C
Dew
Point
Rel
Hum
%
Delta-T
°C
Wind Press
QNH
hPa
Press
MSL
hPa
Rain
since 9 am
mm
Dir
 
Spd
km/h
Gust
km/h
Spd
kts
Gust
kts
24/11:30pm 11.4 -1.6 7.3 76 2.0 NNW 65 83 35 45 999.1 - 2.0
24/11:00pm 11.3 -1.4 6.7 73 2.2 NNW 63 82 34 44 999.4 - 2.0
24/10:46pm 11.0 -2.0 7.3 78 1.8 NNW 65 83 35 45 999.6 - 2.0
24/10:30pm 11.3 -2.7 6.0 70 2.5 NNW 69 83 37 45 1000.0 - 2.0
24/10:08pm 11.4 -0.9 6.8 73 2.2 NNW 61 80 33 43 1000.1 - 2.0
24/10:00pm 11.3 -1.0 7.0 75 2.1 NNW 61 70 33 38 1000.6 - 2.0
24/09:30pm 11.4 0.0 7.7 78 1.8 NNW 57 70 31 38 1000.5 - 2.0
24/09:00pm 11.2 -1.1 6.8 74 2.1 NNW 61 76 33 41 1000.6 1000.7 2.0
24/08:30pm 11.3 0.2 7.9 79 1.7 NNW 56 70 30 38 1000.5 - 2.0
24/08:22pm 11.2 2.5 8.4 83 1.4 NNW 44 65 24 35 1000.9 - 2.0
24/08:00pm 11.1 3.8 8.7 85 1.2 NNW 37 54 20 29 1001.1 - 2.0
24/07:55pm 11.0 4.0 8.6 85 1.2 NNW 35 54 19 29 1001.2 - 1.8
24/07:30pm 10.8 4.6 9.2 90 0.8 NNW 32 43 17 23 1001.5 - 1.8
24/07:00pm 11.1 4.2 8.7 85 1.2 NNW 35 44 19 24 1001.4 - 1.8
24/06:30pm 11.0 4.8 9.2 89 0.9 NNW 32 39 17 21 1001.7 - 1.8
24/06:00pm 10.8 4.4 9.2 90 0.8 NNW 33 44 18 24 1002.0 1002.1 1.8
24/05:30pm 10.5 2.8 8.7 89 0.9 NNW 39 52 21 28 1002.0 - 1.8
24/05:00pm 10.4 2.4 9.0 91 0.7 NNW 41 50 22 27 1001.6 - 1.8
24/04:30pm 10.4 3.3 9.4 93 0.5 NNW 37 46 20 25 1001.9 - 1.8
24/04:00pm 10.3 1.0 9.1 92 0.6 NNW 48 56 26 30 1002.0 - 1.6
24/03:30pm 10.8 -0.6 10.4 97 0.2 NW 61 65 33 35 1001.8 - 1.4
24/03:27pm 11.6 4.1 11.0 96 0.3 NNW 41 65 22 35 1002.1 - 1.4
24/03:00pm 12.0 4.5 10.7 92 0.7 NW 41 61 22 33 1002.3 1002.3 0.6
24/02:30pm 12.6 4.7 10.7 88 1.0 NNW 43 54 23 29 1002.9 - 0.4
24/02:00pm 13.0 7.2 10.7 86 1.2 NNW 32 44 17 24 1003.3 - 0.0
24/01:30pm 13.0 6.5 10.3 84 1.4 NNW 35 48 19 26 1003.6 - 0.0
24/01:00pm 13.2 7.1 9.9 80 1.7 NNW 32 43 17 23 1003.8 - 0.0
24/12:30pm 13.5 8.6 9.9 79 1.9 NNW 26 39 14 21 1004.2 - 0.0
24/12:00pm 13.3 6.9 9.2 76 2.1 NNW 33 43 18 23 1004.6 1004.7 0.0
24/11:30am 14.0 8.3 8.3 68 2.9 N 28 39 15 21 1004.9 - 0.0
24/11:00am 15.5 9.8 6.8 56 4.3 N 26 35 14 19 1005.5 - 0.0
24/10:30am 16.8 10.6 6.3 50 5.2 NNW 28 35 15 19 1005.7 - 0.0
24/10:00am 15.4 10.3 6.2 54 4.5 NNW 22 35 12 19 1006.2 - 0.0
24/09:30am 15.2 10.7 6.2 55 4.4 N 19 26 10 14 1006.5 - 0.0
24/09:00am 15.1 10.5 5.5 52 4.6 NW 19 22 10 12 1006.5 1006.6 0.0
24/08:30am 14.1 10.3 6.0 58 3.9 N 15 20 8 11 1006.8 - 0.0
24/08:00am 13.3 8.6 5.2 58 3.8 N 19 24 10 13 1007.0 - 0.0
24/07:30am 13.1 8.2 5.0 58 3.8 N 20 28 11 15 1006.8 - 0.0
24/07:00am 12.8 8.3 4.3 56 3.9 N 17 24 9 13 1007.3 - 0.0
24/06:30am 12.7 7.4 5.0 59 3.6 N 22 32 12 17 1007.8 - 0.0
24/06:00am 12.0 7.5 5.9 66 2.9 N 19 28 10 15 1008.1 1008.2 -
24/05:30am 12.0 6.2 6.1 67 2.8 NNW 26 32 14 17 1007.8 - 0.0
24/05:00am 12.1 5.4 5.7 65 3.0 NNW 30 37 16 20 1007.6 - 0.0
24/04:30am 12.4 5.6 5.1 61 3.4 NNW 30 41 16 22 1007.7 - 0.0
24/04:00am 11.8 7.2 6.6 70 2.5 NNW 20 28 11 15 1008.1 - 0.0
24/03:30am 11.8 7.8 6.8 71 2.4 N 17 22 9 12 1008.5 - 0.0
24/03:00am 11.9 7.4 6.9 71 2.4 NNW 20 28 11 15 1008.7 1008.8 0.0
24/02:30am 12.5 6.8 6.5 67 2.9 NNW 26 33 14 18 1008.9 - 0.0
24/02:00am 12.2 6.6 7.1 71 2.5 NNW 26 32 14 17 1009.0 - 0.0
24/01:30am 12.3 7.2 7.6 73 2.3 NNW 24 30 13 16 1009.4 - 0.0
24/01:00am 12.6 7.1 7.5 71 2.5 NNW 26 33 14 18 1009.9 - 0.0
24/12:30am 12.9 7.7 7.4 69 2.7 NNW 24 30 13 16 1010.1 - 0.0
24/12:00am 12.8 8.4 7.5 70 2.6 NNW 20 26 11 14 1010.3 1010.4 0.0
 
Date/Time
EDT
Temp
°C
App
Temp
°C
Dew
Point
Rel
Hum
%
Delta-T
°C
Wind Press
QNH
hPa
Press
MSL
hPa
Rain
since 9 am
mm
Dir
 
Spd
km/h
Gust
km/h
Spd
kts
Gust
kts
23/11:30pm 13.1 8.7 7.6 69 2.7 NNW 20 26 11 14 1010.8 - 0.0
23/11:00pm 13.2 8.2 8.0 71 2.6 NNW 24 28 13 15 1011.1 - 0.0
23/10:30pm 13.2 9.2 8.4 72 2.4 NNW 19 20 10 11 1011.3 - 0.0
23/10:00pm 13.2 8.3 8.4 72 2.4 NNW 24 32 13 17 1011.1 - 0.0
23/09:30pm 13.1 7.1 8.8 75 2.2 NNW 30 39 16 21 1011.1 - 0.0
23/09:00pm 13.3 6.8 8.1 71 2.6 NNW 32 41 17 22 1010.8 1010.9 0.0
23/08:30pm 13.1 6.8 8.8 75 2.2 NNW 32 39 17 21 1010.9 - 0.0
23/08:00pm 13.3 5.9 8.5 72 2.4 NNW 37 44 20 24 1010.6 - 0.0
23/07:30pm 13.7 6.2 7.9 68 2.9 NNW 37 50 20 27 1010.2 - 0.0
23/07:00pm 14.0 7.5 8.9 71 2.6 NNW 33 43 18 23 1010.2 - 0.0
23/06:30pm 14.5 8.0 9.1 70 2.8 NNW 33 41 18 22 1009.8 - 0.0
23/06:00pm 13.8 5.2 8.7 71 2.6 NNW 44 54 24 29 1009.5 1009.6 0.0
23/05:30pm 13.6 4.7 9.1 74 2.3 NW 46 54 25 29 1009.4 - 0.0
23/05:00pm 13.9 6.1 8.1 68 2.9 NNW 39 46 21 25 1009.3 - 0.0
23/04:30pm 14.0 5.8 8.0 67 3.0 NNW 41 48 22 26 1008.9 - 0.0
23/04:00pm 13.8 4.9 7.6 66 3.1 NNW 44 54 24 29 1009.0 - 0.0
23/03:30pm 13.8 4.4 8.9 72 2.5 NNW 48 54 26 29 1009.3 - 0.0
23/03:00pm 13.7 5.3 8.8 72 2.5 NW 43 59 23 32 1009.0 1009.1 0.0
23/02:30pm 13.8 4.3 8.5 70 2.7 NNW 48 61 26 33 1008.9 - 0.0

Other Formats:

Comma delimited format used in spreadsheet applications
http://www.bom.gov.au/fwo/IDT60801/IDT60801.94962.axf

JavaScript Object Notation format (JSON) in row-major order
http://www.bom.gov.au/fwo/IDT60801/IDT60801.94962.json